sensor_id;sensor_type;location;lat;lon;timestamp;P1;durP1;ratioP1;P2;durP2;ratioP2
21337;SDS011;10827;50.878;4.382;2022-08-14T00:00:41;9.52;;;5.13;;
21337;SDS011;10827;50.878;4.382;2022-08-14T00:03:07;14.80;;;4.80;;
21337;SDS011;10827;50.878;4.382;2022-08-14T00:05:45;5.90;;;4.70;;
21337;SDS011;10827;50.878;4.382;2022-08-14T00:08:11;10.70;;;4.80;;
21337;SDS011;10827;50.878;4.382;2022-08-14T00:10:37;8.93;;;4.57;;
21337;SDS011;10827;50.878;4.382;2022-08-14T00:13:03;5.90;;;4.50;;
21337;SDS011;10827;50.878;4.382;2022-08-14T00:15:32;10.02;;;5.43;;
21337;SDS011;10827;50.878;4.382;2022-08-14T00:18:00;10.25;;;5.25;;
21337;SDS011;10827;50.878;4.382;2022-08-14T00:20:29;7.60;;;4.55;;
21337;SDS011;10827;50.878;4.382;2022-08-14T00:22:57;8.65;;;4.15;;
21337;SDS011;10827;50.878;4.382;2022-08-14T00:25:23;9.75;;;5.50;;
21337;SDS011;10827;50.878;4.382;2022-08-14T00:27:50;6.88;;;4.30;;
21337;SDS011;10827;50.878;4.382;2022-08-14T00:30:16;7.28;;;4.57;;
21337;SDS011;10827;50.878;4.382;2022-08-14T00:32:42;7.97;;;4.82;;
21337;SDS011;10827;50.878;4.382;2022-08-14T00:35:08;6.80;;;4.00;;
21337;SDS011;10827;50.878;4.382;2022-08-14T00:37:39;8.20;;;4.50;;
21337;SDS011;10827;50.878;4.382;2022-08-14T00:40:07;6.90;;;4.38;;
21337;SDS011;10827;50.878;4.382;2022-08-14T00:42:35;7.53;;;4.38;;
21337;SDS011;10827;50.878;4.382;2022-08-14T00:45:01;5.30;;;4.32;;
21337;SDS011;10827;50.878;4.382;2022-08-14T00:47:29;6.78;;;4.85;;
21337;SDS011;10827;50.878;4.382;2022-08-14T00:49:55;8.88;;;4.95;;
21337;SDS011;10827;50.878;4.382;2022-08-14T00:52:21;4.78;;;4.38;;
21337;SDS011;10827;50.878;4.382;2022-08-14T00:54:49;7.53;;;5.20;;
21337;SDS011;10827;50.878;4.382;2022-08-14T00:57:22;8.57;;;4.70;;
21337;SDS011;10827;50.878;4.382;2022-08-14T00:59:49;7.68;;;4.70;;
21337;SDS011;10827;50.878;4.382;2022-08-14T01:02:16;7.03;;;4.55;;
21337;SDS011;10827;50.878;4.382;2022-08-14T01:04:48;5.03;;;4.47;;
21337;SDS011;10827;50.878;4.382;2022-08-14T01:07:18;7.18;;;4.90;;
21337;SDS011;10827;50.878;4.382;2022-08-14T01:09:56;6.25;;;4.40;;
21337;SDS011;10827;50.878;4.382;2022-08-14T01:12:26;9.32;;;4.38;;
21337;SDS011;10827;50.878;4.382;2022-08-14T01:14:52;6.97;;;4.53;;
21337;SDS011;10827;50.878;4.382;2022-08-14T01:17:22;6.75;;;4.70;;
21337;SDS011;10827;50.878;4.382;2022-08-14T01:19:48;7.28;;;4.75;;
21337;SDS011;10827;50.878;4.382;2022-08-14T01:22:53;9.93;;;4.70;;
21337;SDS011;10827;50.878;4.382;2022-08-14T01:25:20;8.63;;;4.93;;
21337;SDS011;10827;50.878;4.382;2022-08-14T01:27:46;6.97;;;4.57;;
21337;SDS011;10827;50.878;4.382;2022-08-14T01:30:12;6.22;;;4.93;;
21337;SDS011;10827;50.878;4.382;2022-08-14T01:32:38;6.35;;;4.57;;
21337;SDS011;10827;50.878;4.382;2022-08-14T01:35:05;7.03;;;4.55;;
21337;SDS011;10827;50.878;4.382;2022-08-14T01:37:32;7.75;;;4.85;;
21337;SDS011;10827;50.878;4.382;2022-08-14T01:39:58;4.63;;;4.18;;
21337;SDS011;10827;50.878;4.382;2022-08-14T01:42:25;8.15;;;4.97;;
21337;SDS011;10827;50.878;4.382;2022-08-14T01:44:53;6.90;;;4.53;;
21337;SDS011;10827;50.878;4.382;2022-08-14T01:47:21;5.22;;;4.72;;
21337;SDS011;10827;50.878;4.382;2022-08-14T01:49:47;6.32;;;4.68;;
21337;SDS011;10827;50.878;4.382;2022-08-14T01:52:15;8.75;;;4.82;;
21337;SDS011;10827;50.878;4.382;2022-08-14T01:54:41;6.93;;;4.80;;
21337;SDS011;10827;50.878;4.382;2022-08-14T01:57:07;5.15;;;4.65;;
21337;SDS011;10827;50.878;4.382;2022-08-14T01:59:35;5.90;;;4.60;;
21337;SDS011;10827;50.878;4.382;2022-08-14T02:02:04;6.18;;;4.65;;
21337;SDS011;10827;50.878;4.382;2022-08-14T02:04:36;6.15;;;4.80;;
21337;SDS011;10827;50.878;4.382;2022-08-14T02:07:03;6.05;;;5.47;;
21337;SDS011;10827;50.878;4.382;2022-08-14T02:09:30;7.63;;;4.78;;
21337;SDS011;10827;50.878;4.382;2022-08-14T02:11:59;6.70;;;5.03;;
21337;SDS011;10827;50.878;4.382;2022-08-14T02:14:26;7.78;;;4.68;;
21337;SDS011;10827;50.878;4.382;2022-08-14T02:16:53;5.35;;;4.13;;
21337;SDS011;10827;50.878;4.382;2022-08-14T02:19:22;5.72;;;4.70;;
21337;SDS011;10827;50.878;4.382;2022-08-14T02:21:51;7.32;;;4.78;;
21337;SDS011;10827;50.878;4.382;2022-08-14T02:24:19;7.43;;;4.82;;
21337;SDS011;10827;50.878;4.382;2022-08-14T02:26:48;9.18;;;5.15;;
21337;SDS011;10827;50.878;4.382;2022-08-14T02:29:15;7.63;;;4.60;;
21337;SDS011;10827;50.878;4.382;2022-08-14T02:31:46;6.88;;;4.88;;
21337;SDS011;10827;50.878;4.382;2022-08-14T02:34:31;6.97;;;4.55;;
21337;SDS011;10827;50.878;4.382;2022-08-14T02:36:59;4.90;;;4.50;;
21337;SDS011;10827;50.878;4.382;2022-08-14T02:39:27;5.20;;;4.40;;
21337;SDS011;10827;50.878;4.382;2022-08-14T02:41:55;5.95;;;5.13;;
21337;SDS011;10827;50.878;4.382;2022-08-14T02:44:22;7.90;;;5.10;;
21337;SDS011;10827;50.878;4.382;2022-08-14T02:46:48;12.68;;;4.80;;
21337;SDS011;10827;50.878;4.382;2022-08-14T02:49:16;7.57;;;5.10;;
21337;SDS011;10827;50.878;4.382;2022-08-14T02:51:46;10.00;;;5.15;;
21337;SDS011;10827;50.878;4.382;2022-08-14T02:54:13;5.35;;;4.68;;
21337;SDS011;10827;50.878;4.382;2022-08-14T02:56:38;6.20;;;5.10;;
21337;SDS011;10827;50.878;4.382;2022-08-14T02:59:05;7.50;;;5.07;;
21337;SDS011;10827;50.878;4.382;2022-08-14T03:01:32;7.82;;;5.10;;
21337;SDS011;10827;50.878;4.382;2022-08-14T03:03:59;10.27;;;4.93;;
21337;SDS011;10827;50.878;4.382;2022-08-14T03:06:25;7.63;;;4.85;;
21337;SDS011;10827;50.878;4.382;2022-08-14T03:08:52;9.35;;;5.00;;
21337;SDS011;10827;50.878;4.382;2022-08-14T03:11:19;6.28;;;5.40;;
21337;SDS011;10827;50.878;4.382;2022-08-14T03:13:46;6.40;;;4.65;;
21337;SDS011;10827;50.878;4.382;2022-08-14T03:16:17;5.35;;;4.80;;
21337;SDS011;10827;50.878;4.382;2022-08-14T03:18:46;6.32;;;4.90;;
21337;SDS011;10827;50.878;4.382;2022-08-14T03:21:15;8.75;;;5.30;;
21337;SDS011;10827;50.878;4.382;2022-08-14T03:23:46;8.88;;;4.80;;
21337;SDS011;10827;50.878;4.382;2022-08-14T03:26:14;5.63;;;4.78;;
21337;SDS011;10827;50.878;4.382;2022-08-14T03:28:45;4.75;;;4.25;;
21337;SDS011;10827;50.878;4.382;2022-08-14T03:31:13;8.80;;;5.65;;
21337;SDS011;10827;50.878;4.382;2022-08-14T03:33:40;8.38;;;4.85;;
21337;SDS011;10827;50.878;4.382;2022-08-14T03:36:09;8.63;;;5.10;;
21337;SDS011;10827;50.878;4.382;2022-08-14T03:38:38;7.18;;;5.05;;
21337;SDS011;10827;50.878;4.382;2022-08-14T03:41:07;5.53;;;4.93;;
21337;SDS011;10827;50.878;4.382;2022-08-14T03:43:41;5.15;;;4.53;;
21337;SDS011;10827;50.878;4.382;2022-08-14T03:46:08;4.95;;;4.43;;
21337;SDS011;10827;50.878;4.382;2022-08-14T03:48:35;7.55;;;4.57;;
21337;SDS011;10827;50.878;4.382;2022-08-14T03:51:02;5.40;;;4.60;;
21337;SDS011;10827;50.878;4.382;2022-08-14T03:53:28;9.45;;;4.70;;
21337;SDS011;10827;50.878;4.382;2022-08-14T03:55:55;5.88;;;4.90;;
21337;SDS011;10827;50.878;4.382;2022-08-14T03:58:22;5.03;;;4.53;;
21337;SDS011;10827;50.878;4.382;2022-08-14T04:00:48;5.57;;;5.00;;
21337;SDS011;10827;50.878;4.382;2022-08-14T04:03:14;6.80;;;5.13;;
21337;SDS011;10827;50.878;4.382;2022-08-14T04:05:41;5.30;;;4.80;;
21337;SDS011;10827;50.878;4.382;2022-08-14T04:08:07;7.68;;;5.45;;
21337;SDS011;10827;50.878;4.382;2022-08-14T04:10:33;7.75;;;5.45;;
21337;SDS011;10827;50.878;4.382;2022-08-14T04:13:00;13.30;;;5.28;;
21337;SDS011;10827;50.878;4.382;2022-08-14T04:15:27;9.50;;;5.13;;
21337;SDS011;10827;50.878;4.382;2022-08-14T04:17:53;8.63;;;5.07;;
21337;SDS011;10827;50.878;4.382;2022-08-14T04:20:20;7.40;;;5.10;;
21337;SDS011;10827;50.878;4.382;2022-08-14T04:22:46;10.45;;;4.82;;
21337;SDS011;10827;50.878;4.382;2022-08-14T04:25:15;8.45;;;4.75;;
21337;SDS011;10827;50.878;4.382;2022-08-14T04:27:41;8.70;;;4.45;;
21337;SDS011;10827;50.878;4.382;2022-08-14T04:30:07;5.68;;;4.25;;
21337;SDS011;10827;50.878;4.382;2022-08-14T04:32:33;5.68;;;4.60;;
21337;SDS011;10827;50.878;4.382;2022-08-14T04:34:59;6.93;;;4.75;;
21337;SDS011;10827;50.878;4.382;2022-08-14T04:37:25;5.70;;;4.88;;
21337;SDS011;10827;50.878;4.382;2022-08-14T04:40:09;13.18;;;5.28;;
21337;SDS011;10827;50.878;4.382;2022-08-14T04:42:54;6.30;;;4.90;;
21337;SDS011;10827;50.878;4.382;2022-08-14T04:45:39;6.32;;;5.72;;
21337;SDS011;10827;50.878;4.382;2022-08-14T04:48:06;7.95;;;5.05;;
21337;SDS011;10827;50.878;4.382;2022-08-14T04:50:48;6.82;;;5.22;;
21337;SDS011;10827;50.878;4.382;2022-08-14T04:53:16;8.52;;;5.70;;
21337;SDS011;10827;50.878;4.382;2022-08-14T04:55:44;7.38;;;5.38;;
21337;SDS011;10827;50.878;4.382;2022-08-14T04:58:18;6.57;;;5.32;;
21337;SDS011;10827;50.878;4.382;2022-08-14T05:00:46;9.55;;;5.72;;
21337;SDS011;10827;50.878;4.382;2022-08-14T05:03:19;10.50;;;5.43;;
21337;SDS011;10827;50.878;4.382;2022-08-14T05:05:52;10.98;;;5.18;;
21337;SDS011;10827;50.878;4.382;2022-08-14T05:08:21;10.40;;;4.97;;
21337;SDS011;10827;50.878;4.382;2022-08-14T05:10:51;11.27;;;5.55;;
21337;SDS011;10827;50.878;4.382;2022-08-14T05:13:19;10.70;;;5.07;;
21337;SDS011;10827;50.878;4.382;2022-08-14T05:15:47;8.88;;;5.88;;
21337;SDS011;10827;50.878;4.382;2022-08-14T05:18:17;6.60;;;5.57;;
21337;SDS011;10827;50.878;4.382;2022-08-14T05:20:46;6.03;;;4.97;;
21337;SDS011;10827;50.878;4.382;2022-08-14T05:23:15;9.93;;;6.18;;
21337;SDS011;10827;50.878;4.382;2022-08-14T05:25:42;8.50;;;4.95;;
21337;SDS011;10827;50.878;4.382;2022-08-14T05:28:11;6.10;;;5.38;;
21337;SDS011;10827;50.878;4.382;2022-08-14T05:30:44;9.05;;;5.68;;
21337;SDS011;10827;50.878;4.382;2022-08-14T05:33:11;11.65;;;5.50;;
21337;SDS011;10827;50.878;4.382;2022-08-14T05:35:38;9.95;;;5.43;;
21337;SDS011;10827;50.878;4.382;2022-08-14T05:38:07;10.63;;;5.75;;
21337;SDS011;10827;50.878;4.382;2022-08-14T05:40:33;9.10;;;5.25;;
21337;SDS011;10827;50.878;4.382;2022-08-14T05:43:06;10.65;;;5.97;;
21337;SDS011;10827;50.878;4.382;2022-08-14T05:45:32;6.35;;;4.97;;
21337;SDS011;10827;50.878;4.382;2022-08-14T05:48:00;6.15;;;5.35;;
21337;SDS011;10827;50.878;4.382;2022-08-14T05:50:26;6.43;;;4.88;;
21337;SDS011;10827;50.878;4.382;2022-08-14T05:52:52;9.23;;;5.30;;
21337;SDS011;10827;50.878;4.382;2022-08-14T05:55:18;7.85;;;5.10;;
21337;SDS011;10827;50.878;4.382;2022-08-14T06:00:16;8.10;;;4.80;;
21337;SDS011;10827;50.878;4.382;2022-08-14T06:02:43;7.57;;;4.55;;
21337;SDS011;10827;50.878;4.382;2022-08-14T06:05:08;10.00;;;4.93;;
21337;SDS011;10827;50.878;4.382;2022-08-14T06:07:37;7.75;;;5.00;;
21337;SDS011;10827;50.878;4.382;2022-08-14T06:10:04;6.65;;;4.55;;
21337;SDS011;10827;50.878;4.382;2022-08-14T06:12:31;15.77;;;7.18;;
21337;SDS011;10827;50.878;4.382;2022-08-14T06:14:57;7.65;;;4.90;;
21337;SDS011;10827;50.878;4.382;2022-08-14T06:17:24;5.85;;;4.85;;
21337;SDS011;10827;50.878;4.382;2022-08-14T06:19:50;7.40;;;4.70;;
21337;SDS011;10827;50.878;4.382;2022-08-14T06:22:15;7.32;;;4.75;;
21337;SDS011;10827;50.878;4.382;2022-08-14T06:24:41;7.55;;;4.50;;
21337;SDS011;10827;50.878;4.382;2022-08-14T06:27:07;11.43;;;4.90;;
21337;SDS011;10827;50.878;4.382;2022-08-14T06:29:33;10.88;;;4.38;;
21337;SDS011;10827;50.878;4.382;2022-08-14T06:32:00;10.18;;;4.88;;
21337;SDS011;10827;50.878;4.382;2022-08-14T06:34:27;6.63;;;4.45;;
21337;SDS011;10827;50.878;4.382;2022-08-14T06:36:53;5.50;;;4.07;;
21337;SDS011;10827;50.878;4.382;2022-08-14T06:39:21;6.82;;;4.85;;
21337;SDS011;10827;50.878;4.382;2022-08-14T06:41:47;5.97;;;4.82;;
21337;SDS011;10827;50.878;4.382;2022-08-14T06:44:13;5.82;;;4.85;;
21337;SDS011;10827;50.878;4.382;2022-08-14T06:46:39;5.53;;;4.60;;
21337;SDS011;10827;50.878;4.382;2022-08-14T06:49:05;9.98;;;4.93;;
21337;SDS011;10827;50.878;4.382;2022-08-14T06:51:31;6.35;;;4.75;;
21337;SDS011;10827;50.878;4.382;2022-08-14T06:53:57;7.38;;;4.53;;
21337;SDS011;10827;50.878;4.382;2022-08-14T06:56:23;5.90;;;4.68;;
21337;SDS011;10827;50.878;4.382;2022-08-14T06:58:49;6.65;;;5.22;;
21337;SDS011;10827;50.878;4.382;2022-08-14T07:01:14;4.85;;;4.35;;
21337;SDS011;10827;50.878;4.382;2022-08-14T07:04:02;6.80;;;5.13;;
21337;SDS011;10827;50.878;4.382;2022-08-14T07:06:47;7.72;;;5.45;;
21337;SDS011;10827;50.878;4.382;2022-08-14T07:09:13;6.40;;;5.70;;
21337;SDS011;10827;50.878;4.382;2022-08-14T07:11:39;9.57;;;6.07;;
21337;SDS011;10827;50.878;4.382;2022-08-14T07:14:06;11.07;;;5.90;;
21337;SDS011;10827;50.878;4.382;2022-08-14T07:16:33;11.68;;;6.32;;
21337;SDS011;10827;50.878;4.382;2022-08-14T07:19:01;6.13;;;5.53;;
21337;SDS011;10827;50.878;4.382;2022-08-14T07:21:29;8.25;;;6.00;;
21337;SDS011;10827;50.878;4.382;2022-08-14T07:23:54;8.35;;;6.20;;
21337;SDS011;10827;50.878;4.382;2022-08-14T07:26:20;6.15;;;5.65;;
21337;SDS011;10827;50.878;4.382;2022-08-14T07:28:46;6.75;;;6.15;;
21337;SDS011;10827;50.878;4.382;2022-08-14T07:31:11;6.45;;;5.85;;
21337;SDS011;10827;50.878;4.382;2022-08-14T07:33:39;6.78;;;5.93;;
21337;SDS011;10827;50.878;4.382;2022-08-14T07:36:10;12.70;;;6.25;;
21337;SDS011;10827;50.878;4.382;2022-08-14T07:38:38;6.53;;;5.43;;
21337;SDS011;10827;50.878;4.382;2022-08-14T07:41:08;12.25;;;5.00;;
21337;SDS011;10827;50.878;4.382;2022-08-14T07:43:35;7.57;;;5.05;;
21337;SDS011;10827;50.878;4.382;2022-08-14T07:46:01;5.63;;;5.07;;
21337;SDS011;10827;50.878;4.382;2022-08-14T07:48:28;8.73;;;5.75;;
21337;SDS011;10827;50.878;4.382;2022-08-14T07:50:54;6.00;;;5.20;;
21337;SDS011;10827;50.878;4.382;2022-08-14T07:53:22;7.80;;;6.10;;
21337;SDS011;10827;50.878;4.382;2022-08-14T07:55:48;5.15;;;4.68;;
21337;SDS011;10827;50.878;4.382;2022-08-14T07:58:14;6.78;;;4.60;;
21337;SDS011;10827;50.878;4.382;2022-08-14T08:00:41;5.50;;;4.70;;
21337;SDS011;10827;50.878;4.382;2022-08-14T08:03:08;4.75;;;4.35;;
21337;SDS011;10827;50.878;4.382;2022-08-14T08:05:34;5.03;;;3.97;;
21337;SDS011;10827;50.878;4.382;2022-08-14T08:08:03;4.82;;;4.15;;
21337;SDS011;10827;50.878;4.382;2022-08-14T08:10:30;5.00;;;3.70;;
21337;SDS011;10827;50.878;4.382;2022-08-14T08:12:59;7.65;;;4.50;;
21337;SDS011;10827;50.878;4.382;2022-08-14T08:15:28;4.80;;;3.95;;
21337;SDS011;10827;50.878;4.382;2022-08-14T08:18:01;6.82;;;4.13;;
21337;SDS011;10827;50.878;4.382;2022-08-14T08:20:32;4.95;;;4.55;;
21337;SDS011;10827;50.878;4.382;2022-08-14T08:23:05;4.30;;;3.92;;
21337;SDS011;10827;50.878;4.382;2022-08-14T08:25:33;5.78;;;4.53;;
21337;SDS011;10827;50.878;4.382;2022-08-14T08:28:12;8.73;;;4.85;;
21337;SDS011;10827;50.878;4.382;2022-08-14T08:30:41;8.93;;;4.97;;
21337;SDS011;10827;50.878;4.382;2022-08-14T08:33:12;5.78;;;3.95;;
21337;SDS011;10827;50.878;4.382;2022-08-14T08:35:40;6.90;;;4.15;;
21337;SDS011;10827;50.878;4.382;2022-08-14T08:38:09;10.98;;;4.13;;
21337;SDS011;10827;50.878;4.382;2022-08-14T08:40:43;4.90;;;4.00;;
21337;SDS011;10827;50.878;4.382;2022-08-14T08:43:21;4.10;;;3.70;;
21337;SDS011;10827;50.878;4.382;2022-08-14T08:46:02;4.47;;;3.42;;
21337;SDS011;10827;50.878;4.382;2022-08-14T08:48:45;4.63;;;3.60;;
21337;SDS011;10827;50.878;4.382;2022-08-14T08:51:25;7.40;;;3.63;;
21337;SDS011;10827;50.878;4.382;2022-08-14T08:53:57;5.63;;;3.72;;
21337;SDS011;10827;50.878;4.382;2022-08-14T08:56:35;5.07;;;3.78;;
21337;SDS011;10827;50.878;4.382;2022-08-14T08:59:14;7.53;;;3.25;;
21337;SDS011;10827;50.878;4.382;2022-08-14T09:01:40;4.70;;;3.33;;
21337;SDS011;10827;50.878;4.382;2022-08-14T09:04:05;5.05;;;3.42;;
21337;SDS011;10827;50.878;4.382;2022-08-14T09:06:31;6.68;;;3.30;;
21337;SDS011;10827;50.878;4.382;2022-08-14T09:12:16;3.67;;;3.28;;
21337;SDS011;10827;50.878;4.382;2022-08-14T09:14:43;5.85;;;3.17;;
21337;SDS011;10827;50.878;4.382;2022-08-14T09:17:11;7.60;;;3.25;;
21337;SDS011;10827;50.878;4.382;2022-08-14T09:22:06;6.20;;;3.22;;
21337;SDS011;10827;50.878;4.382;2022-08-14T09:24:32;3.80;;;3.00;;
21337;SDS011;10827;50.878;4.382;2022-08-14T09:26:57;3.20;;;3.00;;
21337;SDS011;10827;50.878;4.382;2022-08-14T09:29:24;6.93;;;3.55;;
21337;SDS011;10827;50.878;4.382;2022-08-14T09:31:53;3.70;;;3.17;;
21337;SDS011;10827;50.878;4.382;2022-08-14T09:34:35;5.32;;;3.70;;
21337;SDS011;10827;50.878;4.382;2022-08-14T09:37:10;9.48;;;3.30;;
21337;SDS011;10827;50.878;4.382;2022-08-14T09:40:04;8.05;;;3.97;;
21337;SDS011;10827;50.878;4.382;2022-08-14T09:45:55;3.75;;;3.45;;
21337;SDS011;10827;50.878;4.382;2022-08-14T09:48:23;5.50;;;3.70;;
21337;SDS011;10827;50.878;4.382;2022-08-14T09:50:55;3.70;;;3.40;;
21337;SDS011;10827;50.878;4.382;2022-08-14T09:53:40;3.97;;;3.20;;
21337;SDS011;10827;50.878;4.382;2022-08-14T09:56:11;7.07;;;3.33;;
21337;SDS011;10827;50.878;4.382;2022-08-14T09:58:44;4.43;;;4.03;;
21337;SDS011;10827;50.878;4.382;2022-08-14T10:01:12;4.05;;;3.42;;
21337;SDS011;10827;50.878;4.382;2022-08-14T10:03:53;6.93;;;3.85;;
21337;SDS011;10827;50.878;4.382;2022-08-14T10:06:24;6.03;;;3.70;;
21337;SDS011;10827;50.878;4.382;2022-08-14T10:08:57;4.30;;;3.88;;
21337;SDS011;10827;50.878;4.382;2022-08-14T10:11:30;7.80;;;4.43;;
21337;SDS011;10827;50.878;4.382;2022-08-14T10:14:16;4.25;;;3.80;;
21337;SDS011;10827;50.878;4.382;2022-08-14T10:16:53;4.65;;;3.95;;
21337;SDS011;10827;50.878;4.382;2022-08-14T10:19:22;5.88;;;4.10;;
21337;SDS011;10827;50.878;4.382;2022-08-14T10:24:57;7.65;;;3.50;;
21337;SDS011;10827;50.878;4.382;2022-08-14T10:27:33;4.47;;;4.07;;
21337;SDS011;10827;50.878;4.382;2022-08-14T10:29:59;5.35;;;3.83;;
21337;SDS011;10827;50.878;4.382;2022-08-14T10:32:25;3.78;;;3.45;;
21337;SDS011;10827;50.878;4.382;2022-08-14T10:35:01;4.50;;;3.30;;
21337;SDS011;10827;50.878;4.382;2022-08-14T10:37:35;4.25;;;3.50;;
21337;SDS011;10827;50.878;4.382;2022-08-14T10:40:06;5.13;;;4.63;;
21337;SDS011;10827;50.878;4.382;2022-08-14T10:42:34;6.30;;;3.35;;
21337;SDS011;10827;50.878;4.382;2022-08-14T10:45:01;3.53;;;3.22;;
21337;SDS011;10827;50.878;4.382;2022-08-14T10:47:35;5.00;;;3.17;;
21337;SDS011;10827;50.878;4.382;2022-08-14T10:50:01;3.47;;;2.90;;
21337;SDS011;10827;50.878;4.382;2022-08-14T10:52:29;3.70;;;3.40;;
21337;SDS011;10827;50.878;4.382;2022-08-14T10:55:14;3.50;;;3.20;;
21337;SDS011;10827;50.878;4.382;2022-08-14T10:57:52;5.50;;;3.30;;
21337;SDS011;10827;50.878;4.382;2022-08-14T11:00:25;3.88;;;3.30;;
21337;SDS011;10827;50.878;4.382;2022-08-14T11:03:07;6.13;;;3.60;;
21337;SDS011;10827;50.878;4.382;2022-08-14T11:05:44;3.33;;;3.03;;
21337;SDS011;10827;50.878;4.382;2022-08-14T11:08:13;5.35;;;2.95;;
21337;SDS011;10827;50.878;4.382;2022-08-14T11:13:35;4.00;;;3.00;;
21337;SDS011;10827;50.878;4.382;2022-08-14T11:16:05;3.72;;;3.20;;
21337;SDS011;10827;50.878;4.382;2022-08-14T11:18:31;8.27;;;3.20;;
21337;SDS011;10827;50.878;4.382;2022-08-14T11:20:58;5.07;;;2.80;;
21337;SDS011;10827;50.878;4.382;2022-08-14T11:23:28;7.03;;;3.50;;
21337;SDS011;10827;50.878;4.382;2022-08-14T11:25:56;13.93;;;3.10;;
21337;SDS011;10827;50.878;4.382;2022-08-14T11:28:28;7.30;;;3.60;;
21337;SDS011;10827;50.878;4.382;2022-08-14T11:30:58;10.63;;;3.53;;
21337;SDS011;10827;50.878;4.382;2022-08-14T11:33:27;3.85;;;2.90;;
21337;SDS011;10827;50.878;4.382;2022-08-14T11:36:00;3.90;;;3.33;;
21337;SDS011;10827;50.878;4.382;2022-08-14T11:38:39;27.85;;;4.63;;
21337;SDS011;10827;50.878;4.382;2022-08-14T11:41:07;4.53;;;2.97;;
21337;SDS011;10827;50.878;4.382;2022-08-14T11:43:41;8.10;;;3.00;;
21337;SDS011;10827;50.878;4.382;2022-08-14T11:46:08;10.57;;;3.42;;
21337;SDS011;10827;50.878;4.382;2022-08-14T11:48:44;4.13;;;2.75;;
21337;SDS011;10827;50.878;4.382;2022-08-14T11:51:13;3.17;;;2.80;;
21337;SDS011;10827;50.878;4.382;2022-08-14T11:53:54;4.47;;;3.92;;
21337;SDS011;10827;50.878;4.382;2022-08-14T11:56:22;5.85;;;3.05;;
21337;SDS011;10827;50.878;4.382;2022-08-14T11:58:52;6.05;;;3.38;;
21337;SDS011;10827;50.878;4.382;2022-08-14T12:01:25;5.15;;;3.10;;
21337;SDS011;10827;50.878;4.382;2022-08-14T12:03:52;8.07;;;3.67;;
21337;SDS011;10827;50.878;4.382;2022-08-14T12:06:23;3.65;;;3.08;;
21337;SDS011;10827;50.878;4.382;2022-08-14T12:08:49;10.15;;;3.42;;
21337;SDS011;10827;50.878;4.382;2022-08-14T12:11:18;6.75;;;3.25;;
21337;SDS011;10827;50.878;4.382;2022-08-14T12:13:45;4.45;;;3.33;;
21337;SDS011;10827;50.878;4.382;2022-08-14T12:16:12;5.22;;;3.28;;
21337;SDS011;10827;50.878;4.382;2022-08-14T12:18:44;4.15;;;2.80;;
21337;SDS011;10827;50.878;4.382;2022-08-14T12:21:19;3.70;;;2.92;;
21337;SDS011;10827;50.878;4.382;2022-08-14T12:24:10;4.40;;;3.00;;
21337;SDS011;10827;50.878;4.382;2022-08-14T12:26:36;4.50;;;3.40;;
21337;SDS011;10827;50.878;4.382;2022-08-14T12:31:32;3.97;;;3.05;;
21337;SDS011;10827;50.878;4.382;2022-08-14T12:33:59;2.95;;;2.67;;
21337;SDS011;10827;50.878;4.382;2022-08-14T12:36:26;5.82;;;3.00;;
21337;SDS011;10827;50.878;4.382;2022-08-14T12:38:59;4.50;;;2.90;;
21337;SDS011;10827;50.878;4.382;2022-08-14T12:41:27;4.95;;;2.65;;
21337;SDS011;10827;50.878;4.382;2022-08-14T12:46:40;3.65;;;2.72;;
21337;SDS011;10827;50.878;4.382;2022-08-14T12:49:12;5.43;;;2.90;;
21337;SDS011;10827;50.878;4.382;2022-08-14T12:51:53;2.88;;;2.42;;
21337;SDS011;10827;50.878;4.382;2022-08-14T12:54:20;4.43;;;2.30;;
21337;SDS011;10827;50.878;4.382;2022-08-14T12:57:21;5.75;;;3.15;;
21337;SDS011;10827;50.878;4.382;2022-08-14T12:59:40;3.53;;;3.00;;
21337;SDS011;10827;50.878;4.382;2022-08-14T13:02:07;4.10;;;2.85;;
21337;SDS011;10827;50.878;4.382;2022-08-14T13:04:47;3.10;;;2.63;;
21337;SDS011;10827;50.878;4.382;2022-08-14T13:07:14;2.75;;;2.55;;
21337;SDS011;10827;50.878;4.382;2022-08-14T13:09:40;7.10;;;2.42;;
21337;SDS011;10827;50.878;4.382;2022-08-14T13:12:06;3.22;;;2.45;;
21337;SDS011;10827;50.878;4.382;2022-08-14T13:14:35;3.13;;;2.58;;
21337;SDS011;10827;50.878;4.382;2022-08-14T13:17:03;5.32;;;2.90;;
21337;SDS011;10827;50.878;4.382;2022-08-14T13:19:29;6.72;;;2.88;;
21337;SDS011;10827;50.878;4.382;2022-08-14T13:21:57;5.53;;;2.60;;
21337;SDS011;10827;50.878;4.382;2022-08-14T13:24:23;9.40;;;3.05;;
21337;SDS011;10827;50.878;4.382;2022-08-14T13:26:51;3.80;;;3.05;;
21337;SDS011;10827;50.878;4.382;2022-08-14T13:29:21;7.40;;;2.65;;
21337;SDS011;10827;50.878;4.382;2022-08-14T13:31:50;4.80;;;2.60;;
21337;SDS011;10827;50.878;4.382;2022-08-14T13:34:22;3.35;;;3.05;;
21337;SDS011;10827;50.878;4.382;2022-08-14T13:36:49;2.83;;;2.63;;
21337;SDS011;10827;50.878;4.382;2022-08-14T13:39:19;3.53;;;2.70;;
21337;SDS011;10827;50.878;4.382;2022-08-14T13:41:47;3.75;;;2.70;;
21337;SDS011;10827;50.878;4.382;2022-08-14T13:44:14;2.45;;;2.25;;
21337;SDS011;10827;50.878;4.382;2022-08-14T13:46:41;4.75;;;2.83;;
21337;SDS011;10827;50.878;4.382;2022-08-14T13:49:11;5.85;;;2.95;;
21337;SDS011;10827;50.878;4.382;2022-08-14T13:51:39;4.35;;;2.85;;
21337;SDS011;10827;50.878;4.382;2022-08-14T13:54:14;3.08;;;2.83;;
21337;SDS011;10827;50.878;4.382;2022-08-14T13:56:45;3.92;;;2.95;;
21337;SDS011;10827;50.878;4.382;2022-08-14T13:59:12;3.88;;;3.03;;
21337;SDS011;10827;50.878;4.382;2022-08-14T14:01:39;2.97;;;2.78;;
21337;SDS011;10827;50.878;4.382;2022-08-14T14:04:14;4.38;;;2.90;;
21337;SDS011;10827;50.878;4.382;2022-08-14T14:06:45;3.65;;;3.15;;
21337;SDS011;10827;50.878;4.382;2022-08-14T14:09:14;3.40;;;2.70;;
21337;SDS011;10827;50.878;4.382;2022-08-14T14:11:44;3.85;;;3.25;;
21337;SDS011;10827;50.878;4.382;2022-08-14T14:14:11;3.80;;;2.83;;
21337;SDS011;10827;50.878;4.382;2022-08-14T14:16:40;3.83;;;3.00;;
21337;SDS011;10827;50.878;4.382;2022-08-14T14:19:10;4.90;;;2.58;;
21337;SDS011;10827;50.878;4.382;2022-08-14T14:21:37;5.35;;;2.90;;
21337;SDS011;10827;50.878;4.382;2022-08-14T14:24:03;3.83;;;2.70;;
21337;SDS011;10827;50.878;4.382;2022-08-14T14:26:30;4.88;;;2.72;;
21337;SDS011;10827;50.878;4.382;2022-08-14T14:28:56;5.28;;;2.80;;
21337;SDS011;10827;50.878;4.382;2022-08-14T14:31:24;7.93;;;3.00;;
21337;SDS011;10827;50.878;4.382;2022-08-14T14:34:02;4.00;;;2.63;;
21337;SDS011;10827;50.878;4.382;2022-08-14T14:36:29;5.57;;;3.03;;
21337;SDS011;10827;50.878;4.382;2022-08-14T14:39:14;7.05;;;3.03;;
21337;SDS011;10827;50.878;4.382;2022-08-14T14:41:44;6.20;;;3.00;;
21337;SDS011;10827;50.878;4.382;2022-08-14T14:44:15;6.10;;;3.05;;
21337;SDS011;10827;50.878;4.382;2022-08-14T14:46:49;5.13;;;3.05;;
21337;SDS011;10827;50.878;4.382;2022-08-14T14:49:16;3.22;;;2.88;;
21337;SDS011;10827;50.878;4.382;2022-08-14T14:51:43;5.05;;;2.92;;
21337;SDS011;10827;50.878;4.382;2022-08-14T14:54:10;3.35;;;2.83;;
21337;SDS011;10827;50.878;4.382;2022-08-14T14:56:38;3.90;;;3.38;;
21337;SDS011;10827;50.878;4.382;2022-08-14T14:59:05;3.30;;;3.00;;
21337;SDS011;10827;50.878;4.382;2022-08-14T15:01:34;4.95;;;3.20;;
21337;SDS011;10827;50.878;4.382;2022-08-14T15:04:00;4.90;;;3.17;;
21337;SDS011;10827;50.878;4.382;2022-08-14T15:06:28;3.22;;;2.92;;
21337;SDS011;10827;50.878;4.382;2022-08-14T15:08:56;4.97;;;2.90;;
21337;SDS011;10827;50.878;4.382;2022-08-14T15:11:24;3.78;;;3.10;;
21337;SDS011;10827;50.878;4.382;2022-08-14T15:13:51;4.07;;;2.63;;
21337;SDS011;10827;50.878;4.382;2022-08-14T15:16:16;6.85;;;2.83;;
21337;SDS011;10827;50.878;4.382;2022-08-14T15:18:43;7.00;;;3.40;;
21337;SDS011;10827;50.878;4.382;2022-08-14T15:21:10;5.43;;;3.13;;